Time;durP1;ratioP1;P1;durP2;ratioP2;P2;SDS_P1;SDS_P2;PMS_P1;PMS_P2;Temp;Humidity;BMP_temperature;BMP_pressure;BME280_temperature;BME280_humidity;BME280_pressure;Samples;Min_cycle;Max_cycle;Signal;HPM_P1;HPM_P2
2022/04/11 00:01:55;;;;;;;5.30;3.45;;;;;;;7.99;48.49;99358.78;5031299;28;20033;-61
2022/04/11 00:04:21;;;;;;;7.63;4.25;;;;;;;8.16;48.22;99377.97;5030566;28;20080;-62
2022/04/11 00:06:46;;;;;;;8.00;4.03;;;;;;;8.14;47.81;99378.09;5028889;28;20489;-60
2022/04/11 00:09:12;;;;;;;6.03;3.88;;;;;;;7.99;48.29;99374.78;5031055;28;20033;-61
2022/04/11 00:11:37;;;;;;;8.48;4.50;;;;;;;7.71;49.10;99331.63;5030589;28;20033;-61
2022/04/11 00:14:04;;;;;;;8.73;5.15;;;;;;;7.98;49.12;99377.59;5030302;28;20029;-61
2022/04/11 00:16:30;;;;;;;7.65;4.28;;;;;;;7.94;49.11;99373.44;5030567;28;20065;-61
2022/04/11 00:18:56;;;;;;;6.93;4.63;;;;;;;7.95;49.43;99365.34;5030706;28;20434;-61
2022/04/11 00:21:22;;;;;;;6.40;3.95;;;;;;;8.23;48.16;99378.34;5029966;28;20072;-61
2022/04/11 00:23:47;;;;;;;6.30;4.30;;;;;;;8.06;48.66;99380.50;5030162;28;20138;-61
2022/04/11 00:26:13;;;;;;;5.78;3.80;;;;;;;7.59;48.17;99290.78;5030875;28;20029;-63
2022/04/11 00:28:38;;;;;;;8.27;4.57;;;;;;;8.10;48.42;99389.97;5030909;28;20140;-61
2022/04/11 00:31:04;;;;;;;6.80;4.20;;;;;;;7.98;48.83;99381.09;5030229;28;20049;-60
2022/04/11 00:33:29;;;;;;;5.32;3.42;;;;;;;8.10;48.28;99379.28;5030499;28;20484;-61
2022/04/11 00:35:55;;;;;;;6.53;4.88;;;;;;;7.73;48.98;99344.84;5030128;28;20029;-62
2022/04/11 00:38:20;;;;;;;9.63;3.88;;;;;;;7.81;49.77;99378.88;5030819;28;20082;-62
2022/04/11 00:40:46;;;;;;;4.97;3.80;;;;;;;7.75;49.83;99373.03;5030655;28;20041;-62
2022/04/11 00:43:30;;;;;;;4.43;3.53;;;;;;;7.99;49.39;99381.97;5028377;28;20033;-61
2022/04/11 00:45:56;;;;;;;7.22;3.60;;;;;;;7.85;49.39;99365.19;5029798;28;20101;-60
2022/04/11 00:48:22;;;;;;;5.32;3.60;;;;;;;7.62;49.60;99343.00;5030771;28;20049;-62
2022/04/11 00:50:48;;;;;;;5.00;3.28;;;;;;;7.80;49.66;99372.69;5030664;28;20107;-61
2022/04/11 00:53:13;;;;;;;7.65;3.25;;;;;;;7.84;49.87;99379.50;5030512;28;20038;-61
2022/04/11 00:55:39;;;;;;;4.85;3.58;;;;;;;7.81;49.85;99373.53;5029716;28;20116;-61
2022/04/11 00:58:05;;;;;;;5.10;3.35;;;;;;;7.83;49.93;99380.47;5030486;28;20022;-62
2022/04/11 01:00:31;;;;;;;7.00;3.67;;;;;;;7.54;50.21;99356.88;5030104;28;20021;-62
2022/04/11 01:02:57;;;;;;;6.95;3.53;;;;;;;7.68;50.49;99378.94;5030173;28;20091;-61
2022/04/11 01:05:22;;;;;;;4.78;2.92;;;;;;;7.68;50.30;99382.47;5032777;28;20037;-61
2022/04/11 01:07:51;;;;;;;3.65;2.90;;;;;;;7.68;50.82;99376.28;5034093;28;20458;-62
2022/04/11 01:10:16;;;;;;;3.70;2.88;;;;;;;7.67;50.72;99371.91;5033510;28;20025;-66
2022/04/11 01:12:42;;;;;;;5.07;3.08;;;;;;;7.68;50.87;99373.63;5034061;28;20399;-61
2022/04/11 01:15:08;;;;;;;5.80;2.80;;;;;;;7.61;50.64;99376.75;5033293;28;20458;-62
2022/04/11 01:17:36;;;;;;;4.30;2.70;;;;;;;7.50;51.63;99387.38;5033877;28;20025;-61
2022/04/11 01:20:12;;;;;;;4.50;2.20;;;;;;;7.58;51.16;99382.31;5033508;28;20481;-61
2022/04/11 01:22:39;;;;;;;3.88;2.47;;;;;;;7.50;51.53;99392.72;5033786;28;20049;-62
2022/04/11 01:25:05;;;;;;;4.18;2.65;;;;;;;7.38;51.98;99388.28;5032589;28;20021;-60
2022/04/11 01:27:32;;;;;;;2.97;2.17;;;;;;;7.33;51.96;99372.66;5033886;28;20029;-62
2022/04/11 01:29:58;;;;;;;4.07;2.15;;;;;;;7.37;52.25;99391.91;5033688;28;20478;-63
2022/04/11 01:32:23;;;;;;;4.80;2.33;;;;;;;6.94;52.28;99308.94;5033352;28;20048;-61
2022/04/11 01:34:49;;;;;;;3.10;2.00;;;;;;;7.30;52.77;99386.19;5033802;28;20310;-62
2022/04/11 01:37:14;;;;;;;2.42;1.85;;;;;;;7.12;52.72;99345.81;5033493;28;20033;-62
2022/04/11 01:39:40;;;;;;;2.03;1.58;;;;;;;7.33;52.69;99384.16;5033594;28;20412;-62
2022/04/11 01:42:06;;;;;;;4.82;1.77;;;;;;;7.39;52.62;99393.50;5033426;28;20064;-61
2022/04/11 01:44:31;;;;;;;6.68;1.80;;;;;;;7.38;52.90;99388.28;5033422;28;20047;-63
2022/04/11 01:46:57;;;;;;;2.72;1.27;;;;;;;7.13;53.00;99347.50;5033513;28;20428;-61
2022/04/11 01:49:22;;;;;;;3.33;1.50;;;;;;;7.39;52.91;99390.00;5033159;28;20428;-61
2022/04/11 01:51:48;;;;;;;2.17;1.70;;;;;;;7.31;53.33;99390.56;5033442;28;20037;-60
2022/04/11 01:54:13;;;;;;;2.60;1.60;;;;;;;7.27;53.55;99392.63;5033046;28;20132;-59
2022/04/11 01:56:39;;;;;;;1.83;1.30;;;;;;;7.31;53.34;99396.75;5033428;28;20045;-61
2022/04/11 01:59:04;;;;;;;1.33;0.90;;;;;;;7.16;53.62;99382.75;5033078;28;20035;-61
2022/04/11 02:01:30;;;;;;;1.85;1.02;;;;;;;7.47;52.67;99387.59;5033107;28;20116;-61
2022/04/11 02:03:55;;;;;;;2.60;0.90;;;;;;;7.36;53.37;99384.88;5032953;28;20037;-62
2022/04/11 02:06:21;;;;;;;2.28;0.70;;;;;;;7.27;53.39;99384.63;5032129;28;20065;-63
2022/04/11 02:08:46;;;;;;;4.40;1.15;;;;;;;7.15;53.80;99393.50;5033199;28;20486;-62
2022/04/11 02:11:12;;;;;;;2.42;0.90;;;;;;;7.09;54.25;99396.63;5032835;28;20064;-60
2022/04/11 02:13:38;;;;;;;2.15;0.85;;;;;;;7.16;54.19;99389.88;5032114;28;20038;-61
2022/04/11 02:16:03;;;;;;;2.20;0.90;;;;;;;7.23;53.81;99388.44;5030877;28;20040;-62
2022/04/11 02:18:29;;;;;;;2.25;0.98;;;;;;;7.29;53.66;99377.38;5032002;28;20417;-61
2022/04/11 02:20:54;;;;;;;2.85;0.90;;;;;;;6.95;54.73;99377.16;5032762;28;20489;-60
2022/04/11 02:23:20;;;;;;;2.63;1.20;;;;;;;6.89;55.25;99382.94;5032972;28;20033;-65
2022/04/11 02:25:46;;;;;;;1.58;1.00;;;;;;;7.01;54.44;99381.19;5033214;28;20029;-62
2022/04/11 02:28:12;;;;;;;1.23;0.60;;;;;;;7.12;54.14;99378.63;5032578;28;20033;-60
2022/04/11 02:30:39;;;;;;;3.13;1.30;;;;;;;7.11;54.34;99376.06;5032413;28;20025;-61
2022/04/11 02:33:05;;;;;;;4.25;1.98;;;;;;;6.94;54.86;99378.13;5032540;28;20099;-62
2022/04/11 02:35:30;;;;;;;2.63;1.60;;;;;;;7.02;55.01;99388.22;5031461;28;20045;-61
2022/04/11 02:37:56;;;;;;;4.32;1.40;;;;;;;6.96;54.89;99360.22;5031766;28;20034;-63
2022/04/11 02:40:21;;;;;;;3.95;1.40;;;;;;;6.98;55.32;99368.97;5031067;28;20032;-63
2022/04/11 02:42:47;;;;;;;2.58;1.17;;;;;;;7.21;54.91;99379.72;5032919;28;20112;-62
2022/04/11 02:45:14;;;;;;;3.70;1.20;;;;;;;7.11;54.90;99362.75;5032687;28;20053;-60
2022/04/11 02:47:40;;;;;;;1.92;1.10;;;;;;;7.10;55.06;99355.72;5031981;28;20029;-63
2022/04/11 02:50:07;;;;;;;2.42;1.30;;;;;;;6.98;55.75;99374.28;5031230;28;20038;-61
2022/04/11 02:52:32;;;;;;;1.77;1.30;;;;;;;6.88;56.03;99362.63;5032471;28;20465;-62
2022/04/11 02:54:58;;;;;;;2.72;1.30;;;;;;;6.95;56.40;99376.34;5032654;28;20033;-62
2022/04/11 02:57:24;;;;;;;1.77;1.30;;;;;;;7.00;55.98;99375.03;5030034;28;20112;-62
2022/04/11 02:59:50;;;;;;;3.10;1.30;;;;;;;6.99;55.96;99365.38;5032054;28;20075;-63
2022/04/11 03:02:16;;;;;;;2.35;1.52;;;;;;;7.06;55.82;99364.91;5030414;28;20025;-61
2022/04/11 03:04:42;;;;;;;5.47;1.60;;;;;;;7.17;55.35;99365.81;5030180;28;20025;-62
2022/04/11 03:07:08;;;;;;;3.70;1.50;;;;;;;7.06;55.97;99371.06;5031329;28;20055;-61
2022/04/11 03:09:34;;;;;;;2.60;1.30;;;;;;;7.06;56.08;99368.41;5031759;28;20041;-61
2022/04/11 03:11:59;;;;;;;3.42;1.17;;;;;;;7.09;56.00;99351.38;5031256;28;20037;-62
2022/04/11 03:14:25;;;;;;;2.95;1.58;;;;;;;7.13;55.78;99353.69;5031753;28;20029;-61
2022/04/11 03:16:51;;;;;;;2.63;1.38;;;;;;;6.99;56.23;99346.72;5031981;28;20389;-58
2022/04/11 03:19:17;;;;;;;2.10;1.30;;;;;;;6.96;56.93;99365.56;5031387;28;20425;-59
2022/04/11 03:21:42;;;;;;;4.45;1.40;;;;;;;6.81;56.98;99369.34;5031782;28;20143;-58
2022/04/11 03:24:08;;;;;;;2.53;1.20;;;;;;;6.83;57.18;99375.41;5031218;28;20086;-59
2022/04/11 03:26:33;;;;;;;1.67;1.23;;;;;;;6.99;56.30;99385.78;5030715;28;20029;-60
2022/04/11 03:28:59;;;;;;;3.38;1.75;;;;;;;6.84;57.04;99383.25;5031548;28;20025;-61
2022/04/11 03:31:24;;;;;;;2.65;1.58;;;;;;;6.89;56.88;99380.28;5031134;28;20049;-63
2022/04/11 03:33:50;;;;;;;2.50;1.73;;;;;;;6.79;57.20;99384.59;5031643;28;20091;-60
2022/04/11 03:36:15;;;;;;;3.75;2.10;;;;;;;6.88;56.74;99383.91;5031201;28;20124;-60
2022/04/11 03:38:41;;;;;;;2.95;1.38;;;;;;;6.72;57.34;99369.03;5031379;28;20041;-60
2022/04/11 03:41:06;;;;;;;5.70;1.40;;;;;;;6.79;57.23;99371.28;5031525;28;20045;-60
2022/04/11 03:43:32;;;;;;;3.67;1.48;;;;;;;6.62;57.92;99360.03;5031346;28;20037;-61
2022/04/11 03:45:57;;;;;;;3.28;1.80;;;;;;;6.69;57.62;99371.94;5031038;28;20442;-60
2022/04/11 03:48:23;;;;;;;4.45;1.70;;;;;;;6.83;57.15;99373.59;5031128;28;20033;-60
2022/04/11 03:50:48;;;;;;;3.35;1.75;;;;;;;6.70;57.92;99362.16;5031114;28;20036;-60
2022/04/11 03:53:16;;;;;;;4.68;1.80;;;;;;;6.69;57.81;99361.28;5031567;28;20574;-60
2022/04/11 03:55:42;;;;;;;3.47;2.00;;;;;;;6.61;58.77;99359.16;5030894;28;20037;-60
2022/04/11 03:58:07;;;;;;;2.20;1.45;;;;;;;6.66;58.05;99356.19;5030692;28;20662;-61
2022/04/11 04:00:33;;;;;;;6.32;1.67;;;;;;;6.71;58.04;99350.53;5033366;28;20055;-61
2022/04/11 04:03:06;;;;;;;4.78;1.73;;;;;;;6.87;57.22;99345.81;5049778;28;20033;-59
2022/04/11 04:05:31;;;;;;;3.35;1.90;;;;;;;6.78;57.52;99338.50;5050522;28;20048;-62
2022/04/11 04:07:57;;;;;;;2.70;1.83;;;;;;;6.86;57.40;99340.59;5051024;28;20025;-60
2022/04/11 04:10:26;;;;;;;5.28;2.03;;;;;;;6.80;57.43;99343.72;5051560;28;20112;-63
2022/04/11 04:12:57;;;;;;;4.80;1.80;;;;;;;7.01;56.73;99336.81;5050660;28;20144;-59
2022/04/11 04:15:23;;;;;;;1.92;1.40;;;;;;;6.72;57.53;99321.16;5050208;28;20124;-58
2022/04/11 04:17:51;;;;;;;2.20;1.73;;;;;;;6.92;56.86;99318.84;5031678;28;20109;-60
2022/04/11 04:20:16;;;;;;;6.32;1.70;;;;;;;6.84;57.22;99299.94;5030882;28;20037;-61
2022/04/11 04:22:42;;;;;;;4.20;1.85;;;;;;;6.89;57.15;99298.66;5037482;28;20400;-61
2022/04/11 04:25:07;;;;;;;4.65;1.85;;;;;;;6.64;57.33;99238.41;5041042;28;20021;-62
2022/04/11 04:27:34;;;;;;;4.93;1.95;;;;;;;6.93;56.88;99259.34;5037772;28;20025;-61
2022/04/11 04:30:00;;;;;;;4.45;1.70;;;;;;;7.17;56.27;99279.75;5040267;28;20024;-64
2022/04/11 04:32:26;;;;;;;3.13;1.92;;;;;;;7.01;56.77;99290.72;5037223;28;20052;-66
2022/04/11 04:34:52;;;;;;;3.20;2.05;;;;;;;7.00;56.58;99300.53;5039131;28;20044;-62
2022/04/11 04:37:17;;;;;;;3.97;1.90;;;;;;;6.62;57.28;99264.28;5040955;28;20518;-62
2022/04/11 04:39:43;;;;;;;7.85;2.28;;;;;;;6.91;57.37;99308.34;5043472;28;20414;-63
2022/04/11 04:42:08;;;;;;;3.90;2.33;;;;;;;6.96;57.10;99304.34;5043962;28;20514;-64
2022/04/11 04:44:38;;;;;;;3.13;2.22;;;;;;;7.13;56.45;99299.59;5045370;28;20179;-63
2022/04/11 04:47:04;;;;;;;5.38;2.53;;;;;;;6.90;57.44;99294.16;5046742;28;20048;-62
2022/04/11 04:49:30;;;;;;;4.38;2.38;;;;;;;7.01;56.50;99286.25;5045409;28;20477;-63
2022/04/11 04:51:56;;;;;;;3.97;2.10;;;;;;;6.99;57.04;99266.88;5045380;28;20456;-62
2022/04/11 04:54:22;;;;;;;3.28;2.20;;;;;;;7.09;56.97;99228.91;5045381;28;20033;-61
2022/04/11 04:56:49;;;;;;;3.28;1.75;;;;;;;6.98;56.01;99185.31;5044659;28;20033;-64
2022/04/11 04:59:15;;;;;;;9.73;2.90;;;;;;;7.10;57.57;99215.47;5045370;28;20380;-64
2022/04/11 05:01:40;;;;;;;7.35;2.83;;;;;;;7.14;56.77;99205.44;5046154;28;20025;-62
2022/04/11 05:04:06;;;;;;;6.68;2.50;;;;;;;7.06;57.38;99202.53;5046128;28;20150;-69
2022/04/11 05:06:31;;;;;;;3.55;2.22;;;;;;;6.98;56.83;99158.69;5045173;28;20032;-67
2022/04/11 05:08:57;;;;;;;3.40;2.55;;;;;;;7.33;55.88;99197.75;5045701;28;20048;-67
2022/04/11 05:11:22;;;;;;;7.13;2.40;;;;;;;7.00;56.39;99154.13;5044173;28;20366;-67
2022/04/11 05:13:48;;;;;;;4.13;1.95;;;;;;;7.20;56.83;99178.34;5045762;28;20093;-55
2022/04/11 05:16:15;;;;;;;7.78;2.42;;;;;;;7.37;56.40;99177.06;5045478;28;20033;-67
2022/04/11 05:18:41;;;;;;;3.47;2.20;;;;;;;7.31;56.47;99169.53;5042947;28;20033;-61
2022/04/11 05:21:07;;;;;;;4.68;2.15;;;;;;;7.16;56.43;99156.44;5046119;28;20162;-69
2022/04/11 05:23:32;;;;;;;4.45;2.50;;;;;;;7.23;56.72;99187.91;5046878;28;20029;-60
2022/04/11 05:25:58;;;;;;;3.63;2.00;;;;;;;7.40;55.85;99198.13;5046468;28;20036;-59
2022/04/11 05:28:24;;;;;;;4.38;1.80;;;;;;;7.22;56.26;99203.03;5044403;28;20528;-60
2022/04/11 05:30:49;;;;;;;2.97;1.75;;;;;;;7.12;56.46;99210.03;5045693;28;20070;-61
2022/04/11 05:33:15;;;;;;;4.38;2.03;;;;;;;7.02;56.71;99205.44;5043386;28;20400;-60
2022/04/11 05:35:41;;;;;;;4.88;2.05;;;;;;;6.84;58.01;99222.78;5042849;28;20060;-64
2022/04/11 05:38:06;;;;;;;5.18;2.00;;;;;;;6.97;57.39;99215.56;5046432;28;20029;-62
2022/04/11 05:40:33;;;;;;;4.90;1.80;;;;;;;7.09;56.62;99227.09;5045374;28;20024;-61
2022/04/11 05:42:58;;;;;;;3.13;1.92;;;;;;;6.79;57.94;99211.63;5044088;28;20072;-63
2022/04/11 05:45:24;;;;;;;6.65;1.92;;;;;;;6.61;58.75;99206.72;5045413;28;20480;-62
2022/04/11 05:47:49;;;;;;;3.88;1.80;;;;;;;6.54;58.84;99177.06;5043989;28;20025;-63
2022/04/11 05:50:15;;;;;;;5.75;2.63;;;;;;;6.53;59.04;99170.03;5041540;28;20021;-62
2022/04/11 05:52:40;;;;;;;5.10;2.20;;;;;;;6.72;58.50;99156.19;5042947;28;20029;-61
2022/04/11 05:55:06;;;;;;;5.22;2.13;;;;;;;6.29;58.88;99100.94;5041437;28;20075;-63
2022/04/11 05:57:32;;;;;;;7.40;2.10;;;;;;;6.30;59.31;99089.34;5042218;28;20027;-62
2022/04/11 05:59:57;;;;;;;7.30;2.00;;;;;;;6.43;59.21;99111.38;5042635;28;20033;-63
2022/04/11 06:02:23;;;;;;;3.03;2.03;;;;;;;6.54;59.89;99133.69;5043772;28;20029;-66
2022/04/11 06:04:48;;;;;;;11.20;2.45;;;;;;;6.37;60.27;99100.34;5034864;28;20496;-63
2022/04/11 06:07:13;;;;;;;3.88;2.20;;;;;;;6.74;59.87;99085.09;5033190;28;20025;-63
2022/04/11 06:09:39;;;;;;;2.22;1.90;;;;;;;6.66;61.28;99060.91;5035172;28;20070;-60
2022/04/11 06:12:07;;;;;;;3.53;2.22;;;;;;;6.60;61.30;99069.38;5051247;28;20029;-65
2022/04/11 06:14:33;;;;;;;8.77;2.50;;;;;;;6.79;61.55;99079.44;5051616;28;20496;-63
2022/04/11 06:16:58;;;;;;;5.55;2.03;;;;;;;6.87;61.74;99071.72;5052948;28;20167;-67
2022/04/11 06:19:24;;;;;;;3.58;2.10;;;;;;;6.65;62.39;99092.97;5051033;28;20029;-67
2022/04/11 06:21:50;;;;;;;5.53;2.70;;;;;;;6.58;63.17;99073.97;5052420;28;20106;-63
2022/04/11 06:24:16;;;;;;;5.85;2.88;;;;;;;6.37;64.28;99057.81;5047193;28;20021;-61
2022/04/11 06:26:41;;;;;;;5.68;2.92;;;;;;;6.29;64.31;99055.75;5051454;28;20037;-61
2022/04/11 06:29:06;;;;;;;3.38;1.95;;;;;;;6.54;63.02;99107.91;5051106;28;20025;-61
2022/04/11 06:31:32;;;;;;;4.60;2.42;;;;;;;6.42;63.09;99133.63;5052344;28;20045;-62
2022/04/11 06:33:57;;;;;;;5.63;2.92;;;;;;;6.22;63.92;99160.81;5051221;28;20048;-60
2022/04/11 06:36:23;;;;;;;3.88;2.67;;;;;;;6.29;63.21;99194.00;5050474;28;20049;-59
2022/04/11 06:38:48;;;;;;;7.22;2.55;;;;;;;6.19;63.83;99241.66;5052098;28;20066;-61
2022/04/11 06:41:14;;;;;;;6.85;2.50;;;;;;;6.08;65.36;99298.25;5034976;28;20049;-56
2022/04/11 06:43:39;;;;;;;5.43;2.67;;;;;;;6.12;65.04;99352.88;5031078;28;20083;-58
2022/04/11 06:46:05;;;;;;;9.02;3.10;;;;;;;6.20;66.14;99343.50;5032488;28;20029;-60
2022/04/11 06:48:31;;;;;;;8.10;3.33;;;;;;;6.23;66.82;99333.50;5032144;28;20041;-61
2022/04/11 06:50:57;;;;;;;6.45;3.00;;;;;;;6.32;66.62;99311.59;5032684;28;20025;-60
2022/04/11 06:53:22;;;;;;;8.13;3.20;;;;;;;6.26;66.60;99332.44;5032482;28;20428;-59
2022/04/11 06:55:48;;;;;;;7.90;3.22;;;;;;;6.05;66.53;99310.88;5041980;28;20160;-61
2022/04/11 06:58:17;;;;;;;11.15;4.05;;;;;;;6.32;66.75;99353.28;5051803;28;20033;-61
2022/04/11 07:00:46;;;;;;;8.35;3.45;;;;;;;6.26;66.91;99337.75;5051234;28;20112;-57
2022/04/11 07:03:12;;;;;;;10.98;3.83;;;;;;;6.22;66.46;99297.25;5050737;28;20090;-61
2022/04/11 07:05:38;;;;;;;7.75;3.85;;;;;;;6.13;67.06;99290.78;5050271;28;20416;-64
2022/04/11 07:08:05;;;;;;;9.75;3.75;;;;;;;6.04;67.63;99280.81;5033834;28;20048;-67
2022/04/11 07:10:31;;;;;;;7.00;4.18;;;;;;;6.03;68.03;99273.81;5050892;28;20055;-63
2022/04/11 07:12:57;;;;;;;12.35;4.75;;;;;;;6.00;68.47;99265.97;5051904;28;20033;-59
2022/04/11 07:15:24;;;;;;;9.68;4.07;;;;;;;5.96;68.36;99268.03;5051367;28;20120;-57
2022/04/11 07:17:50;;;;;;;6.45;3.90;;;;;;;5.86;68.01;99266.97;5051169;28;20645;-62
2022/04/11 07:20:15;;;;;;;6.63;3.88;;;;;;;5.78;68.76;99259.53;5051177;28;20108;-58
2022/04/11 07:22:42;;;;;;;7.53;4.13;;;;;;;5.75;68.75;99259.75;5050159;28;20035;-59
2022/04/11 07:25:08;;;;;;;7.63;4.43;;;;;;;5.65;68.97;99259.53;5049510;28;20079;-61
2022/04/11 07:27:34;;;;;;;7.18;3.58;;;;;;;5.62;69.07;99240.31;5050343;28;20061;-61
2022/04/11 07:29:59;;;;;;;6.80;4.20;;;;;;;5.65;69.47;99226.81;5051407;28;20359;-59
2022/04/11 07:32:25;;;;;;;9.18;4.40;;;;;;;5.66;69.58;99224.03;5049859;28;20122;-60
2022/04/11 07:34:50;;;;;;;6.43;3.95;;;;;;;5.69;69.97;99207.91;5031667;28;20124;-58
2022/04/11 07:37:16;;;;;;;6.07;3.80;;;;;;;5.68;69.39;99197.38;5050721;28;20041;-63
2022/04/11 07:39:41;;;;;;;5.28;3.92;;;;;;;5.55;69.63;99178.81;5039413;28;20374;-63
2022/04/11 07:42:07;;;;;;;7.55;4.47;;;;;;;5.68;70.02;99178.78;5032185;28;20140;-59
2022/04/11 07:44:32;;;;;;;6.63;4.28;;;;;;;5.70;69.76;99177.75;5030285;28;20067;-59
2022/04/11 07:46:58;;;;;;;7.75;4.57;;;;;;;5.74;70.42;99171.25;5048553;28;20039;-58
2022/04/11 07:49:24;;;;;;;6.68;4.07;;;;;;;5.82;69.57;99173.38;5050767;28;20029;-57
2022/04/11 07:51:49;;;;;;;8.43;4.38;;;;;;;5.84;69.16;99179.41;5050125;28;20406;-54
2022/04/11 07:54:15;;;;;;;9.52;4.65;;;;;;;5.81;69.52;99169.00;5049657;28;20032;-59
2022/04/11 07:56:40;;;;;;;7.55;4.88;;;;;;;5.65;68.96;99145.31;5048810;28;20047;-60
2022/04/11 07:59:06;;;;;;;7.40;4.70;;;;;;;5.69;68.74;99145.97;5050927;28;20032;-62
2022/04/11 08:01:31;;;;;;;7.20;4.45;;;;;;;5.72;69.36;99138.63;5016875;28;20491;-55
2022/04/11 08:03:57;;;;;;;5.30;3.97;;;;;;;5.70;69.25;99127.28;5050963;28;20484;-60
2022/04/11 08:06:22;;;;;;;6.30;3.60;;;;;;;5.70;68.84;99118.44;5049464;28;20045;-58
2022/04/11 08:08:48;;;;;;;8.23;4.05;;;;;;;5.74;68.75;99147.34;5049686;28;20127;-63
2022/04/11 08:11:18;;;;;;;8.30;5.47;;;;;;;5.84;69.33;99144.88;5050346;28;20418;-62
2022/04/11 08:13:44;;;;;;;5.93;3.88;;;;;;;5.78;68.31;99152.44;5032715;28;20028;-60
2022/04/11 08:16:10;;;;;;;7.90;3.78;;;;;;;5.81;68.72;99165.50;5049849;28;20385;-59
2022/04/11 08:18:36;;;;;;;4.30;3.58;;;;;;;5.83;68.15;99155.59;5049881;28;20028;-61
2022/04/11 08:21:02;;;;;;;6.63;3.97;;;;;;;5.83;67.77;99139.66;5051075;28;20530;-60
2022/04/11 08:23:28;;;;;;;5.38;3.30;;;;;;;5.78;68.09;99134.66;5049362;28;20037;-61
2022/04/11 08:25:54;;;;;;;4.32;3.70;;;;;;;5.79;67.57;99146.16;5045734;28;20056;-61
2022/04/11 08:28:20;;;;;;;4.70;3.40;;;;;;;5.74;67.70;99147.34;5031408;28;20025;-61
2022/04/11 08:30:46;;;;;;;9.32;3.90;;;;;;;5.68;68.03;99147.78;5047949;28;20116;-62
2022/04/11 08:33:11;;;;;;;5.55;3.95;;;;;;;5.64;67.68;99143.63;5030299;28;20121;-63
2022/04/11 08:35:37;;;;;;;5.57;3.70;;;;;;;5.63;68.43;99144.59;5039438;28;20060;-61
2022/04/11 08:38:03;;;;;;;5.82;3.70;;;;;;;5.57;68.18;99121.13;5038667;28;20413;-61
2022/04/11 08:40:29;;;;;;;7.35;4.20;;;;;;;5.65;68.46;99117.94;5038099;28;20037;-60
2022/04/11 08:42:54;;;;;;;4.75;3.67;;;;;;;5.66;68.59;99109.00;5037506;28;20025;-61
2022/04/11 08:45:23;;;;;;;4.63;3.67;;;;;;;5.73;67.45;99110.25;5038331;28;20569;-63
2022/04/11 08:47:50;;;;;;;4.38;3.63;;;;;;;5.66;68.03;99111.66;5050141;28;20060;-63
2022/04/11 08:50:17;;;;;;;4.43;3.70;;;;;;;5.68;67.54;99104.44;5048978;28;20032;-58
2022/04/11 08:52:43;;;;;;;6.38;3.53;;;;;;;5.71;68.72;99109.53;5049574;28;20029;-62
2022/04/11 08:55:10;;;;;;;9.20;4.20;;;;;;;5.78;68.16;99110.75;5030010;28;20056;-61
2022/04/11 08:57:38;;;;;;;7.40;3.78;;;;;;;5.83;67.86;99091.84;5029313;28;20504;-61
2022/04/11 09:00:21;;;;;;;9.32;4.13;;;;;;;5.95;66.67;99079.47;5030403;28;20025;-68
2022/04/11 09:02:47;;;;;;;8.45;3.95;;;;;;;5.95;67.44;99106.91;5030286;28;20577;-63
2022/04/11 09:05:20;;;;;;;8.63;3.92;;;;;;;6.04;67.29;99124.03;5029745;28;20022;-61
2022/04/11 09:07:54;;;;;;;10.93;3.55;;;;;;;6.12;67.82;99140.25;5029024;28;20044;-59
2022/04/11 09:10:37;;;;;;;5.93;3.70;;;;;;;6.18;67.08;99139.78;5030283;28;20033;-61
2022/04/11 09:13:07;;;;;;;5.20;3.63;;;;;;;6.16;67.22;99138.22;5047169;28;20575;-59
2022/04/11 09:15:45;;;;;;;5.88;3.72;;;;;;;6.11;66.78;99148.31;5042365;28;20040;-62
2022/04/11 09:18:11;;;;;;;6.18;2.97;;;;;;;6.01;66.72;99158.75;5038877;28;20024;-62
2022/04/11 09:20:40;;;;;;;6.35;3.55;;;;;;;6.07;67.23;99171.63;5048680;28;20029;-64
2022/04/11 09:23:20;;;;;;;3.60;3.28;;;;;;;6.16;67.29;99204.66;5050388;28;20116;-61
2022/04/11 09:25:46;;;;;;;4.68;3.33;;;;;;;6.00;66.88;99186.25;5052369;28;20033;-65
2022/04/11 09:28:12;;;;;;;5.05;3.78;;;;;;;6.00;66.42;99181.81;5045812;28;20051;-60
2022/04/11 09:30:39;;;;;;;4.65;3.65;;;;;;;5.89;66.26;99187.91;5044309;28;20110;-56
2022/04/11 09:33:09;;;;;;;4.70;3.28;;;;;;;5.83;67.29;99198.97;5053331;28;20052;-59
2022/04/11 09:35:37;;;;;;;6.47;3.33;;;;;;;5.79;67.47;99202.81;5053667;28;20158;-59
2022/04/11 09:38:07;;;;;;;4.25;2.90;;;;;;;5.84;67.09;99198.00;5054108;28;20028;-60
2022/04/11 09:40:49;;;;;;;4.50;3.10;;;;;;;5.87;66.90;99194.25;5052484;28;20048;-58
2022/04/11 09:43:17;;;;;;;5.13;3.00;;;;;;;5.78;66.75;99201.06;5048848;28;20033;-57
2022/04/11 09:45:45;;;;;;;3.22;2.78;;;;;;;5.58;66.95;99184.78;5053817;28;20032;-55
2022/04/11 09:48:14;;;;;;;4.28;3.08;;;;;;;5.70;67.25;99177.75;5052801;28;20456;-59
2022/04/11 09:50:40;;;;;;;3.72;3.03;;;;;;;5.70;66.65;99182.19;5043412;28;20053;-64
2022/04/11 09:53:33;;;;;;;5.53;3.40;;;;;;;5.89;67.42;99195.00;5042044;28;20151;-61
2022/04/11 09:56:05;;;;;;;4.72;3.83;;;;;;;5.90;66.95;99204.66;5041550;28;20478;-61
2022/04/11 09:58:33;;;;;;;4.82;3.88;;;;;;;5.92;67.09;99189.50;5042251;28;20149;-61
2022/04/11 10:01:01;;;;;;;5.28;3.90;;;;;;;5.75;67.34;99159.66;5040269;28;20030;-61
2022/04/11 10:03:29;;;;;;;5.90;4.03;;;;;;;5.54;68.32;99143.44;5043224;28;20542;-61
2022/04/11 10:05:55;;;;;;;4.20;3.80;;;;;;;5.68;67.49;99146.94;5044056;28;20044;-59
2022/04/11 10:08:27;;;;;;;4.75;3.80;;;;;;;5.80;67.15;99161.13;5041466;28;20465;-60
2022/04/11 10:10:54;;;;;;;3.75;2.97;;;;;;;5.76;67.51;99141.91;5042976;28;20416;-58
2022/04/11 10:13:20;;;;;;;3.40;3.10;;;;;;;5.68;67.87;99099.97;5041992;28;20036;-60
2022/04/11 10:15:51;;;;;;;4.55;3.05;;;;;;;5.71;68.30;99109.53;5041103;28;20051;-59
2022/04/11 10:18:23;;;;;;;4.07;2.00;;;;;;;5.95;66.71;99112.22;5041501;28;20029;-56
2022/04/11 10:20:51;;;;;;;4.75;3.30;;;;;;;5.86;67.57;99124.34;5040572;28;20030;-59
2022/04/11 10:23:39;;;;;;;6.93;3.72;;;;;;;5.60;68.15;99076.63;5042443;28;20039;-57
2022/04/11 10:26:14;;;;;;;4.13;3.15;;;;;;;5.93;67.76;99110.63;5042336;28;20112;-57
2022/04/11 10:28:46;;;;;;;6.97;2.90;;;;;;;5.98;68.01;99116.44;5041572;28;20082;-58
2022/04/11 10:31:14;;;;;;;5.78;2.92;;;;;;;6.04;67.81;99100.09;5046118;28;20041;-60
2022/04/11 10:33:42;;;;;;;4.63;2.80;;;;;;;6.22;68.60;99131.56;5053047;28;20047;-63
2022/04/11 10:36:30;;;;;;;5.47;2.70;;;;;;;6.45;66.16;99152.00;5052524;28;20413;-61
2022/04/11 10:39:17;;;;;;;4.00;2.63;;;;;;;6.28;66.43;99155.91;5053496;28;20029;-64
2022/04/11 10:41:54;;;;;;;4.90;2.88;;;;;;;6.15;66.77;99145.34;5051291;28;20414;-62
2022/04/11 10:44:32;;;;;;;5.57;2.83;;;;;;;6.05;66.42;99139.00;5033020;28;20073;-61
2022/04/11 10:47:10;;;;;;;4.07;2.53;;;;;;;5.98;67.97;99127.06;5032726;28;20146;-60
2022/04/11 10:49:45;;;;;;;6.03;2.97;;;;;;;6.07;67.76;99131.75;5032808;28;20072;-62
2022/04/11 10:52:29;;;;;;;4.78;2.75;;;;;;;6.34;67.32;99136.00;5032529;28;20037;-62
2022/04/11 10:54:57;;;;;;;2.88;2.50;;;;;;;6.44;65.86;99134.34;5031349;28;20037;-62
2022/04/11 10:57:45;;;;;;;3.22;2.45;;;;;;;6.68;65.33;99143.28;5032087;28;20527;-62
2022/04/11 11:00:22;;;;;;;3.30;1.70;;;;;;;6.84;64.25;99140.28;5031234;28;20038;-62
2022/04/11 11:02:57;;;;;;;3.40;2.33;;;;;;;6.56;64.23;99153.84;5032493;28;20038;-62
2022/04/11 11:05:29;;;;;;;4.83;2.53;;;;;;;6.33;65.54;99166.22;5032451;28;20045;-61
2022/04/11 11:08:10;;;;;;;4.60;3.10;;;;;;;6.17;66.48;99167.31;5032241;28;20376;-59
2022/04/11 11:10:43;;;;;;;4.30;2.88;;;;;;;6.12;67.06;99155.31;5030783;28;20390;-61
2022/04/11 11:13:32;;;;;;;4.60;2.65;;;;;;;6.25;67.68;99169.44;5030569;28;20029;-64
2022/04/11 11:16:20;;;;;;;4.22;2.80;;;;;;;6.39;66.54;99163.09;5032154;28;20083;-62
2022/04/11 11:18:48;;;;;;;4.50;2.60;;;;;;;6.36;66.81;99170.44;5032173;28;20037;-61
2022/04/11 11:21:18;;;;;;;4.43;2.78;;;;;;;6.43;66.29;99174.38;5032064;28;20029;-62
2022/04/11 11:24:02;;;;;;;7.03;2.53;;;;;;;6.55;66.53;99175.25;5032088;28;20033;-62
2022/04/11 11:26:31;;;;;;;4.70;2.67;;;;;;;6.51;65.92;99160.47;5030599;28;20512;-62
2022/04/11 11:28:56;;;;;;;5.32;2.90;;;;;;;6.25;65.84;99104.75;5031799;28;20026;-62
2022/04/11 11:31:22;;;;;;;3.38;2.53;;;;;;;6.61;65.92;99154.34;5031724;28;20056;-61
2022/04/11 11:33:51;;;;;;;4.93;2.90;;;;;;;6.65;65.66;99157.63;5031924;28;20041;-62
2022/04/11 11:36:16;;;;;;;4.90;2.60;;;;;;;6.74;65.91;99175.56;5031765;28;20040;-61
2022/04/11 11:38:42;;;;;;;6.38;3.60;;;;;;;6.77;65.62;99176.31;5031591;28;20025;-63
2022/04/11 11:41:07;;;;;;;8.18;3.20;;;;;;;6.53;65.76;99127.50;5030921;28;20091;-62
2022/04/11 11:43:33;;;;;;;5.57;2.92;;;;;;;6.77;65.60;99171.00;5031028;28;20033;-62